Time;durP1;ratioP1;P1;durP2;ratioP2;P2;SDS_P1;SDS_P2;PMS_P1;PMS_P2;Temp;Humidity;BMP_temperature;BMP_pressure;BME280_temperature;BME280_humidity;BME280_pressure;Samples;Min_cycle;Max_cycle;Signal;HPM_P1;HPM_P2
2023/03/03 00:01:25;;;;;;;36.60;14.10;;;0.70;99.90;;;;;;5009686;28;20112;-81
2023/03/03 00:03:52;;;;;;;35.22;15.00;;;0.60;99.90;;;;;;5011044;28;20023;-81
2023/03/03 00:06:17;;;;;;;33.17;15.25;;;0.40;99.90;;;;;;5008643;28;20100;-81
2023/03/03 00:08:43;;;;;;;34.13;15.18;;;0.40;99.90;;;;;;5010819;28;20720;-81
2023/03/03 00:11:09;;;;;;;42.53;16.20;;;0.50;99.90;;;;;;5010855;28;20053;-82
2023/03/03 00:14:00;;;;;;;35.03;16.05;;;0.50;99.90;;;;;;5013489;28;20087;-82
2023/03/03 00:16:39;;;;;;;32.55;15.13;;;0.50;99.90;;;;;;5010151;28;20057;-82
2023/03/03 00:19:17;;;;;;;38.22;17.08;;;0.50;99.90;;;;;;5006774;28;20040;-81
2023/03/03 00:21:50;;;;;;;35.63;15.60;;;0.60;99.90;;;;;;5008827;28;20084;-81
2023/03/03 00:24:26;;;;;;;46.75;17.38;;;0.60;99.90;;;;;;5009783;28;20128;-81
2023/03/03 00:26:54;;;;;;;35.47;14.30;;;0.60;99.90;;;;;;5009395;28;20042;-81
2023/03/03 00:29:30;;;;;;;25.85;13.52;;;0.60;99.90;;;;;;5008291;28;20038;-82
2023/03/03 00:32:21;;;;;;;36.53;15.38;;;0.30;99.90;;;;;;5008863;28;20094;-82
2023/03/03 00:34:47;;;;;;;33.55;14.77;;;0.10;99.90;;;;;;5007296;28;20132;-82
2023/03/03 00:37:33;;;;;;;41.60;15.85;;;0.10;99.90;;;;;;5008732;28;20033;-82
2023/03/03 00:40:26;;;;;;;35.10;14.85;;;0.30;99.90;;;;;;5008708;28;20060;-81
2023/03/03 00:42:54;;;;;;;38.55;15.25;;;0.30;99.90;;;;;;5008807;28;20534;-82
2023/03/03 00:45:29;;;;;;;35.80;16.20;;;0.30;99.90;;;;;;5011085;28;20623;-81
2023/03/03 00:47:56;;;;;;;30.33;14.15;;;0.40;99.90;;;;;;5009144;28;20085;-81
2023/03/03 00:50:32;;;;;;;30.02;11.75;;;0.10;99.90;;;;;;5007167;28;20552;-82
2023/03/03 00:53:01;;;;;;;31.98;15.10;;;-0.20;99.90;;;;;;5008582;28;20046;-82
2023/03/03 00:55:28;;;;;;;35.05;14.23;;;-0.40;99.90;;;;;;5008701;28;20046;-82
2023/03/03 00:57:53;;;;;;;36.72;17.20;;;-0.40;99.90;;;;;;5009783;28;20022;-81
2023/03/03 01:00:19;;;;;;;35.55;15.00;;;-0.30;99.90;;;;;;5010472;28;20041;-81
2023/03/03 01:02:45;;;;;;;35.05;17.05;;;-0.30;99.90;;;;;;5008134;28;20042;-82
2023/03/03 01:05:13;;;;;;;38.10;15.75;;;-0.20;99.90;;;;;;5006060;28;20041;-81
2023/03/03 01:07:39;;;;;;;40.30;15.98;;;-0.10;99.90;;;;;;5008790;28;20033;-82
2023/03/03 01:10:05;;;;;;;38.80;14.63;;;0.00;99.90;;;;;;5008955;28;20048;-81
2023/03/03 01:12:31;;;;;;;41.47;16.85;;;0.00;99.90;;;;;;5008055;28;20034;-82
2023/03/03 01:14:56;;;;;;;29.45;13.43;;;0.00;99.90;;;;;;5010610;28;20048;-81
2023/03/03 01:17:22;;;;;;;38.03;15.80;;;0.00;99.90;;;;;;5009853;28;20121;-81
2023/03/03 01:19:48;;;;;;;35.47;15.05;;;0.00;99.90;;;;;;5007540;28;20038;-82
2023/03/03 01:22:13;;;;;;;36.17;16.52;;;0.10;99.90;;;;;;5005466;28;20030;-83
2023/03/03 01:24:39;;;;;;;34.55;15.25;;;0.10;99.90;;;;;;5006091;28;20041;-82
2023/03/03 01:27:04;;;;;;;41.70;17.88;;;0.10;99.90;;;;;;5009583;28;20034;-82
2023/03/03 01:29:30;;;;;;;41.08;14.63;;;0.10;99.90;;;;;;5009280;28;20041;-82
2023/03/03 01:31:56;;;;;;;36.83;15.38;;;-0.20;99.90;;;;;;5007178;28;20052;-82
2023/03/03 01:34:21;;;;;;;29.90;13.85;;;-0.10;99.90;;;;;;5013165;28;20041;-82
2023/03/03 01:36:47;;;;;;;34.08;14.85;;;-0.20;99.90;;;;;;5007103;28;20026;-82
2023/03/03 01:39:13;;;;;;;26.67;13.25;;;-0.30;99.90;;;;;;5009957;28;20026;-82
2023/03/03 01:41:39;;;;;;;32.83;12.93;;;-0.40;99.90;;;;;;5009401;28;20037;-82
2023/03/03 01:44:04;;;;;;;37.20;14.35;;;-0.50;99.90;;;;;;5009952;28;20053;-83
2023/03/03 01:47:13;;;;;;;36.35;15.88;;;-0.50;99.90;;;;;;5009030;28;20042;-82
2023/03/03 01:49:47;;;;;;;34.10;13.85;;;-0.40;99.90;;;;;;5007174;28;20030;-82
2023/03/03 01:52:26;;;;;;;40.20;12.95;;;-0.30;99.90;;;;;;5007392;28;20014;-82
2023/03/03 01:54:57;;;;;;;38.05;16.20;;;-0.30;99.90;;;;;;5008814;28;20041;-82
2023/03/03 01:57:30;;;;;;;37.95;14.52;;;-0.20;99.90;;;;;;5007370;28;20116;-83
2023/03/03 01:59:57;;;;;;;46.97;16.15;;;-0.20;99.90;;;;;;5008347;28;20038;-83
2023/03/03 02:02:25;;;;;;;34.38;15.70;;;-0.20;99.90;;;;;;5008181;28;20049;-81
2023/03/03 02:04:51;;;;;;;38.80;16.90;;;-0.10;99.90;;;;;;5005339;28;20045;-82
2023/03/03 02:07:18;;;;;;;34.75;14.50;;;-0.20;99.90;;;;;;5007956;28;20030;-80
2023/03/03 02:10:09;;;;;;;34.17;14.27;;;-0.20;99.90;;;;;;5008232;28;20030;-81
2023/03/03 02:12:47;;;;;;;36.22;15.73;;;-0.20;99.90;;;;;;5007190;28;20038;-81
2023/03/03 02:15:21;;;;;;;36.17;14.43;;;-0.20;99.90;;;;;;5007774;28;20045;-81
2023/03/03 02:17:52;;;;;;;37.17;14.93;;;-0.10;99.90;;;;;;5006126;28;20014;-80
2023/03/03 02:20:30;;;;;;;40.47;16.08;;;-0.10;99.90;;;;;;5004678;28;20026;-81
2023/03/03 02:23:18;;;;;;;31.15;16.10;;;-0.10;99.90;;;;;;5008309;28;20042;-81
2023/03/03 02:25:57;;;;;;;15.07;9.23;;;-0.10;99.90;;;;;;5008737;28;20513;-81
2023/03/03 02:28:25;;;;;;;33.13;14.10;;;-0.30;99.90;;;;;;5009180;28;20147;-81
2023/03/03 02:30:54;;;;;;;40.08;14.65;;;-0.50;99.90;;;;;;5006758;28;20046;-81
2023/03/03 02:33:20;;;;;;;31.73;13.80;;;-0.60;99.90;;;;;;5002188;28;20030;-83
2023/03/03 02:35:46;;;;;;;35.45;15.30;;;-0.60;99.90;;;;;;5001088;28;20071;-81
2023/03/03 02:38:37;;;;;;;33.78;14.52;;;-0.60;99.90;;;;;;5014167;28;20045;-81
2023/03/03 02:41:16;;;;;;;33.42;14.75;;;-0.60;99.90;;;;;;5008964;28;20030;-84
2023/03/03 02:43:45;;;;;;;38.85;14.80;;;-0.50;99.90;;;;;;5007371;28;20029;-81
2023/03/03 02:46:11;;;;;;;32.10;14.80;;;-0.50;99.90;;;;;;5006296;28;20355;-81
2023/03/03 02:48:36;;;;;;;67.20;23.73;;;-0.50;99.90;;;;;;5008525;28;20061;-81
2023/03/03 02:51:02;;;;;;;55.65;21.98;;;-0.50;99.90;;;;;;5006659;28;20026;-81
2023/03/03 02:53:28;;;;;;;37.45;15.90;;;-0.40;99.90;;;;;;5002639;28;20038;-82
2023/03/03 02:55:53;;;;;;;39.80;17.02;;;-0.40;99.90;;;;;;5006313;28;20112;-81
2023/03/03 02:58:19;;;;;;;31.40;13.48;;;-0.40;99.90;;;;;;5006333;28;20062;-82
2023/03/03 03:00:46;;;;;;;33.15;13.65;;;-0.50;99.90;;;;;;5010263;28;20038;-83
2023/03/03 03:03:12;;;;;;;35.58;14.73;;;-0.50;99.90;;;;;;5007891;28;20030;-81
2023/03/03 03:05:38;;;;;;;36.50;14.70;;;-0.40;99.90;;;;;;5009811;28;20033;-83
2023/03/03 03:08:03;;;;;;;36.83;14.90;;;-0.40;99.90;;;;;;5008468;28;20043;-82
2023/03/03 03:10:29;;;;;;;31.17;13.23;;;-0.40;99.90;;;;;;5010534;28;20040;-82
2023/03/03 03:12:54;;;;;;;33.47;14.55;;;-0.40;99.90;;;;;;5009978;28;20038;-81
2023/03/03 03:15:20;;;;;;;33.75;14.15;;;-0.50;99.90;;;;;;5011828;28;20041;-81
2023/03/03 03:17:46;;;;;;;33.42;14.52;;;-0.40;99.90;;;;;;5009375;28;20034;-82
2023/03/03 03:20:12;;;;;;;35.08;12.43;;;-0.60;99.90;;;;;;5009271;28;20034;-81
2023/03/03 03:22:37;;;;;;;26.48;12.05;;;-0.60;99.90;;;;;;5011625;28;21651;-81
2023/03/03 03:25:03;;;;;;;31.70;15.15;;;-0.90;99.90;;;;;;5013086;28;20033;-81
2023/03/03 03:27:29;;;;;;;31.20;16.00;;;-1.00;99.90;;;;;;5013822;28;20032;-82
2023/03/03 03:29:54;;;;;;;31.50;14.38;;;-1.00;99.90;;;;;;5011252;28;20080;-81
2023/03/03 03:32:20;;;;;;;34.47;15.13;;;-1.00;99.90;;;;;;5010827;28;20053;-85
2023/03/03 03:34:45;;;;;;;38.67;15.63;;;-1.00;99.90;;;;;;5007243;28;20061;-81
2023/03/03 03:37:11;;;;;;;36.42;13.45;;;-1.00;99.90;;;;;;5007097;28;20556;-81
2023/03/03 03:39:37;;;;;;;37.80;14.30;;;-0.90;99.90;;;;;;5010399;28;20451;-81
2023/03/03 03:42:02;;;;;;;27.23;11.77;;;-0.80;99.90;;;;;;5007102;28;20034;-82
2023/03/03 03:44:28;;;;;;;39.17;14.82;;;-0.70;99.90;;;;;;5011448;28;20034;-82
2023/03/03 03:46:54;;;;;;;28.50;12.07;;;-0.70;99.90;;;;;;5008321;28;20038;-82
2023/03/03 03:49:20;;;;;;;38.40;15.45;;;-0.60;99.90;;;;;;5009095;28;20042;-82
2023/03/03 03:51:46;;;;;;;34.75;16.13;;;-0.60;99.90;;;;;;5007359;28;20036;-82
2023/03/03 03:54:11;;;;;;;35.28;16.63;;;-0.50;99.90;;;;;;5011921;28;20033;-82
2023/03/03 03:56:37;;;;;;;31.95;13.07;;;-0.40;99.90;;;;;;5007478;28;20153;-83
2023/03/03 03:59:05;;;;;;;39.17;14.93;;;-0.30;99.90;;;;;;5012206;28;20090;-82
2023/03/03 04:01:31;;;;;;;28.17;12.68;;;-0.30;99.90;;;;;;5008511;28;20414;-83
2023/03/03 04:03:56;;;;;;;30.73;15.50;;;-0.20;99.90;;;;;;5009702;28;20121;-82
2023/03/03 04:06:22;;;;;;;33.42;14.27;;;-0.20;99.90;;;;;;5006379;28;20069;-82
2023/03/03 04:08:48;;;;;;;34.70;15.52;;;-0.10;99.90;;;;;;5013505;28;20026;-82
2023/03/03 04:11:13;;;;;;;36.45;13.98;;;0.00;99.90;;;;;;5013245;28;20037;-82
2023/03/03 04:13:39;;;;;;;33.30;13.73;;;0.00;99.90;;;;;;5010037;28;20423;-82
2023/03/03 04:16:05;;;;;;;20.25;10.25;;;-0.10;99.90;;;;;;5009821;28;20557;-82
2023/03/03 04:18:30;;;;;;;22.45;12.23;;;-0.10;99.90;;;;;;5014158;28;20113;-83
2023/03/03 04:20:56;;;;;;;19.05;9.00;;;-0.20;99.90;;;;;;5013770;28;20088;-82
2023/03/03 04:23:21;;;;;;;25.50;13.38;;;-0.30;99.90;;;;;;5014425;28;20026;-82
2023/03/03 04:25:48;;;;;;;15.38;10.95;;;-0.20;99.90;;;;;;5009568;28;20034;-82
2023/03/03 04:28:15;;;;;;;30.13;13.65;;;-0.30;99.90;;;;;;5007261;28;20073;-82
2023/03/03 04:30:40;;;;;;;36.95;14.90;;;-0.30;99.90;;;;;;5008513;28;20117;-82
2023/03/03 04:33:06;;;;;;;28.13;12.30;;;-0.30;99.90;;;;;;5008509;28;20061;-82
2023/03/03 04:35:32;;;;;;;31.15;13.88;;;-0.20;99.90;;;;;;5010456;28;20438;-82
2023/03/03 04:37:57;;;;;;;31.52;15.07;;;-0.20;99.90;;;;;;5014250;28;20046;-82
2023/03/03 04:40:23;;;;;;;27.52;12.32;;;-0.10;99.90;;;;;;5009782;28;20057;-82
2023/03/03 04:42:48;;;;;;;30.40;13.30;;;-0.10;99.90;;;;;;5009558;28;20519;-82
2023/03/03 04:45:14;;;;;;;21.35;11.98;;;-0.10;99.90;;;;;;5008337;28;20129;-82
2023/03/03 04:47:40;;;;;;;18.25;9.13;;;-0.20;99.90;;;;;;5009590;28;20034;-82
2023/03/03 04:50:06;;;;;;;31.67;13.68;;;-0.20;99.90;;;;;;5007534;28;20322;-83
2023/03/03 04:52:32;;;;;;;26.17;11.02;;;-0.20;99.90;;;;;;5008258;28;20041;-83
2023/03/03 04:54:58;;;;;;;26.70;13.20;;;-0.20;99.90;;;;;;5008484;28;20739;-86
2023/03/03 04:57:23;;;;;;;30.02;11.63;;;-0.20;99.90;;;;;;5007979;28;20025;-82
2023/03/03 04:59:50;;;;;;;30.55;12.77;;;-0.10;99.90;;;;;;5007840;28;20048;-82
2023/03/03 05:02:16;;;;;;;40.90;16.38;;;-0.10;99.90;;;;;;5006795;28;20041;-82
2023/03/03 05:04:42;;;;;;;36.05;15.75;;;-0.10;99.90;;;;;;5009331;28;20034;-82
2023/03/03 05:07:08;;;;;;;29.67;12.40;;;-0.10;99.90;;;;;;5008070;28;20044;-82
2023/03/03 05:09:34;;;;;;;30.33;12.13;;;-0.10;99.90;;;;;;5010050;28;20095;-83
2023/03/03 05:12:00;;;;;;;23.90;10.57;;;-0.10;99.90;;;;;;5010683;28;20029;-83
2023/03/03 05:14:26;;;;;;;28.38;12.57;;;-0.10;99.90;;;;;;5007085;28;20068;-83
2023/03/03 05:16:51;;;;;;;31.52;13.80;;;-0.10;99.90;;;;;;5007693;28;20426;-83
2023/03/03 05:19:17;;;;;;;26.75;12.30;;;-0.10;99.90;;;;;;5009699;28;20041;-83
2023/03/03 05:21:42;;;;;;;33.67;14.43;;;0.00;99.90;;;;;;5008173;28;20069;-83
2023/03/03 05:24:10;;;;;;;31.95;14.75;;;0.00;99.90;;;;;;5006070;28;20036;-83
2023/03/03 05:26:36;;;;;;;28.27;13.90;;;0.10;99.90;;;;;;5006842;28;20045;-83
2023/03/03 05:29:01;;;;;;;29.23;12.98;;;0.10;99.90;;;;;;5008807;28;20030;-83
2023/03/03 05:31:27;;;;;;;27.70;11.93;;;0.20;99.90;;;;;;5005208;28;20033;-82
2023/03/03 05:33:53;;;;;;;36.65;13.73;;;0.20;99.90;;;;;;5011280;28;20038;-83
2023/03/03 05:36:19;;;;;;;27.90;13.32;;;0.30;99.90;;;;;;5001510;28;20030;-84
2023/03/03 05:38:44;;;;;;;29.40;14.00;;;0.30;99.90;;;;;;5009189;28;20037;-83
2023/03/03 05:41:10;;;;;;;29.95;14.73;;;0.40;99.90;;;;;;5009243;28;20048;-83
2023/03/03 05:43:36;;;;;;;35.88;15.18;;;0.40;99.90;;;;;;5010111;28;20037;-83
2023/03/03 05:46:02;;;;;;;26.98;11.98;;;0.40;99.90;;;;;;5007309;28;20036;-84
2023/03/03 05:48:28;;;;;;;36.05;15.48;;;0.50;99.90;;;;;;5014007;28;20037;-87
2023/03/03 05:50:56;;;;;;;31.55;15.10;;;0.50;99.90;;;;;;5011806;28;20038;-89
2023/03/03 05:53:22;;;;;;;;;;;0.60;99.90;;;;;;5011013;28;20030;-87
2023/03/03 05:55:48;;;;;;;37.05;14.73;;;0.60;99.90;;;;;;5011633;28;19931;-88
2023/03/03 05:58:13;;;;;;;35.10;13.88;;;0.60;99.90;;;;;;5015036;28;20021;-87
2023/03/03 06:00:39;;;;;;;51.88;16.85;;;0.70;99.90;;;;;;5012325;28;20064;-88
2023/03/03 06:03:05;;;;;;;37.63;14.82;;;0.70;99.90;;;;;;5014888;28;20045;-88
2023/03/03 06:05:30;;;;;;;32.08;13.90;;;0.70;99.90;;;;;;5014751;28;20033;-88
2023/03/03 06:07:56;;;;;;;37.97;17.38;;;0.70;99.90;;;;;;5009314;28;20033;-87
2023/03/03 06:10:21;;;;;;;38.70;15.95;;;0.70;99.90;;;;;;5008124;28;20033;-87
2023/03/03 06:12:47;;;;;;;31.25;14.27;;;0.70;99.90;;;;;;5014016;28;20097;-87
2023/03/03 06:15:13;;;;;;;35.10;15.50;;;0.70;99.90;;;;;;5007341;28;20097;-86
2023/03/03 06:17:38;;;;;;;37.47;15.35;;;0.80;99.90;;;;;;5013116;28;20465;-86
2023/03/03 06:20:04;;;;;;;34.17;15.00;;;0.80;99.90;;;;;;5011525;28;20030;-88
2023/03/03 06:22:30;;;;;;;43.80;18.20;;;0.80;99.90;;;;;;5012001;28;20058;-88
2023/03/03 06:24:55;;;;;;;45.60;16.77;;;0.80;99.90;;;;;;5011733;28;20037;-87
2023/03/03 06:27:21;;;;;;;35.53;14.18;;;0.80;99.90;;;;;;5011739;28;20037;-88
2023/03/03 06:29:47;;;;;;;34.97;13.32;;;0.90;99.90;;;;;;5009014;28;20035;-88
2023/03/03 06:32:12;;;;;;;36.92;14.93;;;0.80;99.90;;;;;;5014347;28;20057;-88
2023/03/03 06:34:38;;;;;;;46.90;16.45;;;0.90;99.90;;;;;;5012404;28;20030;-88
2023/03/03 06:37:04;;;;;;;37.20;16.10;;;0.90;99.90;;;;;;5017617;28;20040;-89
2023/03/03 06:39:29;;;;;;;37.50;17.50;;;0.90;99.90;;;;;;5014877;28;20022;-90
2023/03/03 06:41:55;;;;;;;38.63;17.00;;;0.90;99.90;;;;;;5017950;28;20009;-86
2023/03/03 06:44:21;;;;;;;45.38;17.55;;;0.90;99.90;;;;;;5013252;28;20038;-88
2023/03/03 06:46:46;;;;;;;46.00;16.77;;;0.90;99.90;;;;;;5013428;28;20044;-91
2023/03/03 06:49:12;;;;;;;39.90;14.85;;;1.00;99.90;;;;;;5015199;28;20049;-88
2023/03/03 06:51:38;;;;;;;48.35;17.90;;;1.00;99.90;;;;;;5013589;28;20046;-89
2023/03/03 06:54:13;;;;;;;42.88;17.65;;;1.00;99.90;;;;;;5016090;28;20081;-87
2023/03/03 06:56:40;;;;;;;46.47;16.73;;;1.10;99.90;;;;;;5015233;28;20157;-88
2023/03/03 06:59:13;;;;;;;40.28;17.05;;;1.10;99.90;;;;;;5014350;28;20475;-87
2023/03/03 07:01:40;;;;;;;49.30;18.92;;;1.10;99.90;;;;;;5015064;28;20046;-87
2023/03/03 07:04:27;;;;;;;40.53;17.00;;;1.20;99.90;;;;;;5018335;28;20018;-88
2023/03/03 07:06:54;;;;;;;51.67;17.97;;;1.10;99.90;;;;;;5015342;28;20080;-89
2023/03/03 07:09:28;;;;;;;37.17;15.27;;;1.20;99.90;;;;;;5015820;28;20026;-90
2023/03/03 07:12:05;;;;;;;39.03;17.77;;;1.20;99.90;;;;;;5016039;28;20034;-87
2023/03/03 07:14:32;;;;;;;38.50;15.35;;;1.30;99.90;;;;;;5015509;28;20027;-88
2023/03/03 07:17:04;;;;;;;38.60;16.38;;;1.20;99.90;;;;;;5015113;28;20106;-88
2023/03/03 07:19:34;;;;;;;37.88;16.13;;;1.20;99.90;;;;;;5013772;28;20475;-88
2023/03/03 07:22:12;;;;;;;43.60;18.80;;;1.30;99.90;;;;;;5017845;28;20034;-88
2023/03/03 07:24:39;;;;;;;38.88;16.80;;;1.30;99.90;;;;;;5017354;28;20026;-89
2023/03/03 07:27:09;;;;;;;42.22;17.48;;;1.30;99.90;;;;;;5016019;28;20030;-89
2023/03/03 07:29:40;;;;;;;41.78;16.90;;;1.20;99.90;;;;;;5014366;28;20065;-89
2023/03/03 07:32:23;;;;;;;42.75;18.60;;;1.30;99.90;;;;;;5022023;28;20069;-88
2023/03/03 07:34:50;;;;;;;40.83;20.60;;;1.30;99.90;;;;;;5013593;28;20042;-89
2023/03/03 07:37:20;;;;;;;45.10;17.60;;;1.30;99.90;;;;;;5013663;28;20429;-89
2023/03/03 07:39:49;;;;;;;40.15;18.83;;;1.40;99.90;;;;;;5011135;28;20092;-88
2023/03/03 07:42:21;;;;;;;38.85;17.23;;;1.40;99.90;;;;;;5018206;28;20128;-89
2023/03/03 07:44:50;;;;;;;38.70;16.77;;;1.40;99.90;;;;;;5016781;28;20112;-88
2023/03/03 07:47:23;;;;;;;40.83;16.85;;;1.40;99.90;;;;;;5014554;28;20033;-88
2023/03/03 07:49:50;;;;;;;43.05;16.20;;;1.40;99.90;;;;;;5018498;28;20131;-88
2023/03/03 07:52:44;;;;;;;44.47;17.10;;;1.50;99.90;;;;;;5016266;28;20038;-88
2023/03/03 07:55:34;;;;;;;44.75;18.40;;;1.50;99.90;;;;;;5011917;28;20117;-89
2023/03/03 07:58:22;;;;;;;33.92;16.33;;;1.50;99.90;;;;;;5011008;28;20026;-89
2023/03/03 08:01:25;;;;;;;42.43;17.17;;;1.50;99.90;;;;;;5014118;28;20046;-90
2023/03/03 08:03:51;;;;;;;44.00;17.92;;;1.60;99.90;;;;;;5018052;28;20045;-89
2023/03/03 08:06:36;;;;;;;36.72;17.55;;;1.60;99.90;;;;;;5014282;28;20049;-90
2023/03/03 08:09:16;;;;;;;30.48;15.20;;;1.60;99.90;;;;;;5014028;28;20037;-89
2023/03/03 08:12:04;;;;;;;36.83;15.73;;;1.60;99.90;;;;;;5014838;28;20062;-90
2023/03/03 08:14:34;;;;;;;40.00;17.02;;;1.70;99.90;;;;;;5015531;28;20042;-91
2023/03/03 08:17:00;;;;;;;49.30;19.20;;;1.70;99.90;;;;;;5016694;28;20037;-90
2023/03/03 08:19:28;;;;;;;44.08;17.60;;;1.70;99.90;;;;;;5014526;28;20034;-90
2023/03/03 08:22:01;;;;;;;44.90;18.17;;;1.70;99.90;;;;;;5015357;28;20034;-89
2023/03/03 08:24:27;;;;;;;34.80;14.90;;;1.80;99.90;;;;;;5016301;28;20033;-90
2023/03/03 08:26:52;;;;;;;43.85;18.95;;;1.80;99.90;;;;;;5016745;28;20042;-90
2023/03/03 08:29:18;;;;;;;42.60;16.55;;;1.80;99.90;;;;;;5015435;28;20026;-90
2023/03/03 08:31:44;;;;;;;28.80;13.63;;;1.90;99.90;;;;;;5018960;28;20065;-90
2023/03/03 08:34:09;;;;;;;46.83;18.42;;;1.80;99.90;;;;;;5021772;28;20026;-91
2023/03/03 08:36:35;;;;;;;45.55;18.83;;;1.90;99.90;;;;;;5015873;28;20122;-90
2023/03/03 08:39:02;;;;;;;37.75;18.88;;;1.90;99.90;;;;;;5019479;28;20029;-91
2023/03/03 08:41:28;;;;;;;52.40;21.30;;;2.00;99.90;;;;;;5018416;28;20032;-92
2023/03/03 08:43:53;;;;;;;16.33;10.73;;;2.00;99.90;;;;;;5020531;28;20093;-92
2023/03/03 08:46:19;;;;;;;42.67;19.15;;;2.10;99.90;;;;;;5012579;28;20034;-92
2023/03/03 08:48:44;;;;;;;54.53;21.13;;;2.20;99.90;;;;;;5012306;28;20068;-92
2023/03/03 08:51:10;;;;;;;89.72;36.50;;;2.20;99.90;;;;;;5014059;28;20506;-93
2023/03/03 08:53:37;;;;;;;48.88;19.88;;;2.30;99.90;;;;;;5016739;28;20115;-92
2023/03/03 08:56:04;;;;;;;31.60;13.63;;;2.40;99.90;;;;;;5001867;28;20165;-93
2023/03/03 08:58:30;;;;;;;32.88;16.70;;;2.50;99.90;;;;;;5013898;28;20019;-93
2023/03/03 09:00:57;;;;;;;47.88;20.52;;;2.60;99.90;;;;;;5015284;28;20102;-93
2023/03/03 09:03:24;;;;;;;48.97;19.27;;;2.80;99.90;;;;;;5016178;28;20032;-92
2023/03/03 09:05:49;;;;;;;28.95;16.00;;;3.00;99.90;;;;;;5008456;28;20172;-94
2023/03/03 09:08:18;;;;;;;41.75;18.42;;;3.20;99.90;;;;;;5019838;28;20091;-95
2023/03/03 09:10:44;;;;;;;47.25;19.98;;;3.30;99.90;;;;;;5023709;28;20034;-93
2023/03/03 09:13:15;;;;;;;44.95;17.90;;;3.50;99.90;;;;;;5015757;28;20057;-94
2023/03/03 09:15:42;;;;;;;46.20;20.33;;;3.60;99.90;;;;;;5022675;28;20065;-92
2023/03/03 09:18:07;;;;;;;48.70;20.55;;;3.70;99.90;;;;;;5001469;28;20030;-92
2023/03/03 09:20:44;;;;;;;30.20;12.50;;;3.90;99.90;;;;;;5016681;28;20498;-93
2023/03/03 09:23:32;;;;;;;31.95;17.35;;;4.10;99.90;;;;;;5012931;28;20053;-94
2023/03/03 09:26:14;;;;;;;46.42;21.60;;;4.00;99.90;;;;;;5016255;28;20057;-93
2023/03/03 09:28:39;;;;;;;47.80;18.65;;;4.10;99.90;;;;;;5018136;28;20072;-94
2023/03/03 09:31:22;;;;;;;41.60;17.85;;;4.20;99.90;;;;;;5017020;28;20042;-94
2023/03/03 09:33:50;;;;;;;42.90;20.13;;;4.40;99.90;;;;;;5015054;28;20052;-94
2023/03/03 09:36:28;;;;;;;44.42;18.60;;;4.60;99.90;;;;;;5020587;28;20042;-95
2023/03/03 09:38:55;;;;;;;48.97;20.15;;;4.60;99.90;;;;;;5015865;28;20037;-93
2023/03/03 09:41:59;;;;;;;53.30;20.48;;;4.80;99.90;;;;;;5015750;28;20096;-93
2023/03/03 09:44:27;;;;;;;14.98;8.43;;;4.60;99.90;;;;;;5014945;28;20034;-93
2023/03/03 09:47:17;;;;;;;38.33;16.10;;;4.70;99.90;;;;;;5016181;28;20033;-93
2023/03/03 09:49:46;;;;;;;47.25;19.60;;;4.70;99.90;;;;;;5013052;28;20045;-93
2023/03/03 09:52:21;;;;;;;;;;;4.80;99.90;;;;;;5015068;28;20080;-93
2023/03/03 09:55:20;;;;;;;44.72;19.10;;;5.00;99.90;;;;;;5004388;28;19959;-95
2023/03/03 09:57:54;;;;;;;49.15;20.38;;;5.20;99.90;;;;;;5007492;28;20042;-93
2023/03/03 10:01:00;;;;;;;49.17;20.00;;;5.20;99.90;;;;;;5015279;28;20041;-93
2023/03/03 10:03:45;;;;;;;42.97;19.25;;;5.30;99.90;;;;;;5013588;28;20030;-93
2023/03/03 10:06:28;;;;;;;50.15;21.10;;;5.40;99.90;;;;;;5018363;28;20041;-93
2023/03/03 10:08:53;;;;;;;52.70;23.00;;;5.60;99.90;;;;;;5019317;28;20034;-92
2023/03/03 10:12:10;;;;;;;43.95;19.48;;;5.60;99.90;;;;;;5017782;28;20045;-91
2023/03/03 10:14:56;;;;;;;43.30;20.10;;;5.60;99.90;;;;;;5009684;28;20053;-91
2023/03/03 10:17:53;;;;;;;45.58;20.50;;;5.70;99.90;;;;;;5020790;28;20030;-90
2023/03/03 10:20:46;;;;;;;40.22;16.92;;;5.80;99.90;;;;;;5020429;28;20117;-90
2023/03/03 10:23:37;;;;;;;35.22;18.33;;;5.80;99.90;;;;;;5016761;28;20010;-90
2023/03/03 10:26:07;;;;;;;39.97;18.50;;;6.00;99.90;;;;;;5011912;28;20121;-92
2023/03/03 10:29:05;;;;;;;40.58;17.83;;;5.90;99.90;;;;;;5011273;28;20056;-91
2023/03/03 10:31:50;;;;;;;41.53;19.35;;;5.80;99.90;;;;;;5014920;28;20053;-88
2023/03/03 10:34:41;;;;;;;41.05;18.15;;;6.00;99.90;;;;;;5020011;28;20060;-90
2023/03/03 10:37:26;;;;;;;37.72;18.67;;;6.20;99.90;;;;;;5015288;28;20054;-91
2023/03/03 10:40:05;;;;;;;38.05;17.05;;;6.30;99.90;;;;;;5017787;28;20109;-90
2023/03/03 10:42:51;;;;;;;41.38;17.80;;;6.20;99.90;;;;;;5013173;28;20412;-90
2023/03/03 10:45:55;;;;;;;40.33;18.85;;;6.10;99.90;;;;;;5016537;28;20548;-89
2023/03/03 10:48:37;;;;;;;48.20;20.33;;;6.30;99.90;;;;;;5037365;28;20072;-89
2023/03/03 10:51:11;;;;;;;45.88;21.15;;;6.50;99.90;;;;;;5034856;28;20026;-89
2023/03/03 10:54:03;;;;;;;38.83;19.00;;;6.40;99.90;;;;;;5020218;28;20048;-87
2023/03/03 10:56:50;;;;;;;44.80;20.15;;;6.30;99.90;;;;;;5014325;28;20038;-88
2023/03/03 10:59:31;;;;;;;47.25;21.52;;;6.30;99.90;;;;;;5019038;28;20048;-88
2023/03/03 11:02:18;;;;;;;43.40;19.58;;;6.30;99.90;;;;;;5009865;28;20050;-89
2023/03/03 11:05:06;;;;;;;42.42;19.38;;;6.20;99.90;;;;;;5018901;28;20046;-87
2023/03/03 11:07:41;;;;;;;41.42;19.17;;;6.30;99.90;;;;;;5012721;28;20479;-88
2023/03/03 11:10:21;;;;;;;50.63;21.60;;;6.30;99.90;;;;;;5011042;28;20117;-89
2023/03/03 11:13:16;;;;;;;44.65;20.05;;;6.40;99.90;;;;;;5016922;28;20200;-89
2023/03/03 11:16:17;;;;;;;47.78;21.27;;;6.40;99.90;;;;;;5013091;28;20057;-89
2023/03/03 11:19:03;;;;;;;45.92;20.33;;;6.30;99.90;;;;;;5012278;28;20469;-88
2023/03/03 11:22:01;;;;;;;46.08;20.70;;;6.30;99.90;;;;;;5011383;28;20034;-89
2023/03/03 11:24:50;;;;;;;47.63;20.23;;;6.50;99.90;;;;;;5014026;28;20065;-89
2023/03/03 11:27:32;;;;;;;47.38;21.15;;;6.50;99.90;;;;;;5016116;28;20022;-90
2023/03/03 11:29:58;;;;;;;43.72;21.67;;;6.60;99.90;;;;;;5018667;28;20038;-90
2023/03/03 11:32:45;;;;;;;43.42;19.85;;;6.60;99.90;;;;;;5017191;28;20521;-90
2023/03/03 11:35:20;;;;;;;47.38;23.50;;;6.80;99.90;;;;;;5013117;28;20030;-91
2023/03/03 11:37:55;;;;;;;40.47;18.85;;;7.00;99.90;;;;;;5006392;28;20038;-87
2023/03/03 11:40:48;;;;;;;42.92;18.50;;;7.20;99.90;;;;;;5007428;28;20167;-88
2023/03/03 11:43:28;;;;;;;39.85;18.67;;;7.30;99.90;;;;;;5009341;28;20049;-90
2023/03/03 11:46:03;;;;;;;39.28;17.77;;;7.40;99.90;;;;;;5017474;28;20026;-90
2023/03/03 11:48:49;;;;;;;40.85;20.25;;;7.60;99.90;;;;;;5017328;28;20050;-90
2023/03/03 11:51:40;;;;;;;42.75;18.95;;;7.60;99.90;;;;;;5017093;28;20103;-90
2023/03/03 11:54:18;;;;;;;42.05;19.00;;;7.70;99.90;;;;;;5021484;28;20034;-89
2023/03/03 11:56:46;;;;;;;40.95;18.70;;;7.70;99.90;;;;;;5020243;28;20059;-90
2023/03/03 11:59:31;;;;;;;37.78;18.67;;;7.60;99.90;;;;;;5008342;28;20042;-91
2023/03/03 12:02:03;;;;;;;40.20;18.48;;;7.20;99.90;;;;;;5022495;28;20077;-89
2023/03/03 12:04:37;;;;;;;35.88;18.58;;;7.20;99.90;;;;;;5016285;28;20044;-92
2023/03/03 12:07:22;;;;;;;42.97;19.00;;;7.30;99.90;;;;;;5005278;28;20034;-92
2023/03/03 12:10:13;;;;;;;43.95;19.85;;;7.50;99.90;;;;;;5004883;28;20035;-92
2023/03/03 12:13:01;;;;;;;40.97;19.73;;;7.60;99.90;;;;;;5010364;28;20045;-91
2023/03/03 12:15:39;;;;;;;38.83;19.90;;;7.60;99.90;;;;;;5009832;28;20030;-90
2023/03/03 12:18:39;;;;;;;45.22;19.17;;;7.60;99.90;;;;;;5011019;28;20057;-90
2023/03/03 12:21:31;;;;;;;51.03;21.38;;;7.80;99.90;;;;;;5019126;28;20065;-92
2023/03/03 12:24:33;;;;;;;41.90;18.70;;;7.90;99.90;;;;;;5013021;28;20026;-89
2023/03/03 12:27:24;;;;;;;39.67;18.13;;;7.90;99.90;;;;;;5012293;28;20042;-89
2023/03/03 12:30:09;;;;;;;37.22;18.20;;;7.70;99.90;;;;;;5014938;28;20041;-89
2023/03/03 12:33:06;;;;;;;43.83;18.02;;;7.70;99.90;;;;;;5015029;28;20038;-91
2023/03/03 12:36:15;;;;;;;39.47;17.90;;;7.70;99.90;;;;;;5008998;28;20006;-90
2023/03/03 12:39:26;;;;;;;42.88;19.30;;;7.60;99.90;;;;;;5006850;28;20134;-88
2023/03/03 12:42:09;;;;;;;41.83;19.30;;;7.50;99.90;;;;;;5006936;28;20568;-89
2023/03/03 12:44:59;;;;;;;45.45;21.05;;;7.30;99.90;;;;;;5020468;28;20037;-91
2023/03/03 12:47:32;;;;;;;40.63;19.23;;;7.20;99.90;;;;;;5008963;28;20782;-89
2023/03/03 12:50:08;;;;;;;39.80;19.40;;;7.30;99.90;;;;;;5015603;28;20054;-88
2023/03/03 12:52:57;;;;;;;40.00;18.27;;;7.40;99.90;;;;;;5021798;28;20048;-88
2023/03/03 12:55:51;;;;;;;37.58;17.70;;;7.30;99.90;;;;;;5013914;28;20048;-89
2023/03/03 12:58:38;;;;;;;37.42;18.25;;;7.30;99.90;;;;;;5020555;28;20048;-89
2023/03/03 13:01:05;;;;;;;36.38;18.60;;;7.50;99.90;;;;;;5012945;28;20070;-91
2023/03/03 13:03:45;;;;;;;38.28;18.65;;;7.60;99.90;;;;;;5005732;28;20053;-88
2023/03/03 13:06:13;;;;;;;38.55;18.63;;;7.50;99.90;;;;;;5009074;28;20053;-90